Time;durP1;ratioP1;P1;durP2;ratioP2;P2;SDS_P1;SDS_P2;PMS_P1;PMS_P2;Temp;Humidity;BMP_temperature;BMP_pressure;BME280_temperature;BME280_humidity;BME280_pressure;Samples;Min_cycle;Max_cycle;Signal;HPM_P1;HPM_P2
2023/09/29 00:00:43;;;;;;;4.43;2.93;;;;;;;;;;5052353;28;20571;-75
2023/09/29 00:03:12;;;;;;;8.80;4.07;;;;;;;;;;5052766;28;20473;-75
2023/09/29 00:05:39;;;;;;;5.53;3.70;;;;;;;;;;5056409;28;20866;-75
2023/09/29 00:08:07;;;;;;;5.30;3.05;;;;;;;;;;5056270;28;20598;-75
2023/09/29 00:10:39;;;;;;;5.00;3.30;;;;;;;;;;5055825;28;20222;-75
2023/09/29 00:13:07;;;;;;;5.93;3.50;;;;;;;;;;5056365;28;20437;-75
2023/09/29 00:15:34;;;;;;;5.77;3.60;;;;;;;;;;5055878;28;20440;-75
2023/09/29 00:18:03;;;;;;;5.33;3.50;;;;;;;;;;5055673;28;20504;-75
2023/09/29 00:20:30;;;;;;;5.80;3.90;;;;;;;;;;5055821;28;20422;-75
2023/09/29 00:22:59;;;;;;;7.93;3.97;;;;;;;;;;5055932;28;20214;-75
2023/09/29 00:25:27;;;;;;;6.00;4.35;;;;;;;;;;5055519;28;20244;-75
2023/09/29 00:27:55;;;;;;;7.63;4.43;;;;;;;;;;5056714;28;20257;-75
2023/09/29 00:30:22;;;;;;;5.18;3.65;;;;;;;;;;5055562;28;20194;-75
2023/09/29 00:32:50;;;;;;;6.82;3.72;;;;;;;;;;5055575;28;20194;-75
2023/09/29 00:35:24;;;;;;;6.22;3.90;;;;;;;;;;5055684;28;20191;-75
2023/09/29 00:37:51;;;;;;;7.38;4.00;;;;;;;;;;5056289;28;20181;-75
2023/09/29 00:40:18;;;;;;;7.10;4.50;;;;;;;;;;5055377;28;20191;-75
2023/09/29 00:42:46;;;;;;;5.90;4.17;;;;;;;;;;5055248;28;20684;-75
2023/09/29 00:45:16;;;;;;;5.97;3.45;;;;;;;;;;5055718;28;20780;-75
2023/09/29 00:47:44;;;;;;;5.95;3.55;;;;;;;;;;5055302;28;20191;-75
2023/09/29 00:50:14;;;;;;;8.73;4.57;;;;;;;;;;5055250;28;20199;-75
2023/09/29 00:52:43;;;;;;;5.82;3.50;;;;;;;;;;5054983;28;20650;-75
2023/09/29 00:55:13;;;;;;;5.57;4.20;;;;;;;;;;5055412;28;20268;-75
2023/09/29 00:57:41;;;;;;;5.25;3.28;;;;;;;;;;5055359;28;20593;-75
2023/09/29 01:00:21;;;;;;;5.60;3.20;;;;;;;;;;5054666;28;20218;-75
2023/09/29 01:02:48;;;;;;;5.13;3.88;;;;;;;;;;5055056;28;20199;-75
2023/09/29 01:05:16;;;;;;;6.70;4.22;;;;;;;;;;5055378;28;20553;-75
2023/09/29 01:07:46;;;;;;;5.65;3.53;;;;;;;;;;5055123;28;20191;-75
2023/09/29 01:10:13;;;;;;;5.57;3.25;;;;;;;;;;5034989;28;20183;-75
2023/09/29 01:12:41;;;;;;;5.13;3.42;;;;;;;;;;5034884;28;20226;-75
2023/09/29 01:15:12;;;;;;;7.15;3.78;;;;;;;;;;5033904;28;20192;-75
2023/09/29 01:17:41;;;;;;;6.60;4.10;;;;;;;;;;5035050;28;20630;-75
2023/09/29 01:20:13;;;;;;;7.00;3.15;;;;;;;;;;5072583;28;20190;-75
2023/09/29 01:22:47;;;;;;;9.60;4.18;;;;;;;;;;5072720;28;20198;-75
2023/09/29 01:25:16;;;;;;;8.23;4.10;;;;;;;;;;5074599;28;20181;-75
2023/09/29 01:27:43;;;;;;;4.07;2.95;;;;;;;;;;5074810;28;20436;-75
2023/09/29 01:30:13;;;;;;;4.38;3.13;;;;;;;;;;5074493;28;20235;-75
2023/09/29 01:32:41;;;;;;;5.57;3.28;;;;;;;;;;5074689;28;20185;-75
2023/09/29 01:35:10;;;;;;;12.60;3.73;;;;;;;;;;5074271;28;20276;-75
2023/09/29 01:37:38;;;;;;;6.90;4.10;;;;;;;;;;5074473;28;20455;-75
2023/09/29 01:40:06;;;;;;;6.20;3.40;;;;;;;;;;5074129;28;20236;-75
2023/09/29 01:42:35;;;;;;;6.10;3.78;;;;;;;;;;5074393;28;20244;-75
2023/09/29 01:45:04;;;;;;;4.00;2.80;;;;;;;;;;5074504;28;20551;-75
2023/09/29 01:47:31;;;;;;;5.13;3.20;;;;;;;;;;5073953;28;20190;-75
2023/09/29 01:49:58;;;;;;;7.05;4.57;;;;;;;;;;5074027;28;20190;-75
2023/09/29 01:52:26;;;;;;;6.40;4.03;;;;;;;;;;5074241;28;20271;-75
2023/09/29 01:54:55;;;;;;;5.28;3.78;;;;;;;;;;5054307;28;20269;-75
2023/09/29 01:57:22;;;;;;;8.98;4.15;;;;;;;;;;5054590;28;20187;-75
2023/09/29 01:59:51;;;;;;;6.72;3.40;;;;;;;;;;5054373;28;20597;-75
2023/09/29 02:02:19;;;;;;;4.72;2.85;;;;;;;;;;5054052;28;20191;-75
2023/09/29 02:04:47;;;;;;;4.60;2.92;;;;;;;;;;5054095;28;20645;-75
2023/09/29 02:07:15;;;;;;;5.38;3.17;;;;;;;;;;5053536;28;20198;-75
2023/09/29 02:09:43;;;;;;;4.40;2.97;;;;;;;;;;5071050;28;20243;-75
2023/09/29 02:12:10;;;;;;;10.18;4.68;;;;;;;;;;5073641;28;20281;-75
2023/09/29 02:14:38;;;;;;;6.03;3.65;;;;;;;;;;5073897;28;20205;-75
2023/09/29 02:17:08;;;;;;;5.57;3.30;;;;;;;;;;5073612;28;20644;-75
2023/09/29 02:19:35;;;;;;;6.10;3.05;;;;;;;;;;5073039;28;20228;-75
2023/09/29 02:22:03;;;;;;;4.50;3.00;;;;;;;;;;5073801;28;20247;-75
2023/09/29 02:24:30;;;;;;;4.95;2.90;;;;;;;;;;5073265;28;20245;-75
2023/09/29 02:26:58;;;;;;;6.05;4.45;;;;;;;;;;5073577;28;20281;-75
2023/09/29 02:29:27;;;;;;;4.95;3.42;;;;;;;;;;5072941;28;20275;-75
2023/09/29 02:31:56;;;;;;;5.20;3.35;;;;;;;;;;5055323;28;20550;-75
2023/09/29 02:34:25;;;;;;;7.05;3.70;;;;;;;;;;5033407;28;20231;-75
2023/09/29 02:36:53;;;;;;;5.15;3.65;;;;;;;;;;5033619;28;20207;-75
2023/09/29 02:39:20;;;;;;;5.07;3.88;;;;;;;;;;5033339;28;20202;-75
2023/09/29 02:41:48;;;;;;;5.72;3.15;;;;;;;;;;5048927;28;20182;-75
2023/09/29 02:44:15;;;;;;;4.18;2.97;;;;;;;;;;5053641;28;20207;-75
2023/09/29 02:46:42;;;;;;;4.95;3.10;;;;;;;;;;5053451;28;20194;-75
2023/09/29 02:49:11;;;;;;;4.75;3.15;;;;;;;;;;5053114;28;20191;-75
2023/09/29 02:51:40;;;;;;;4.45;2.30;;;;;;;;;;5053243;28;20230;-75
2023/09/29 02:54:10;;;;;;;4.47;2.72;;;;;;;;;;5053133;28;20644;-75
2023/09/29 02:56:37;;;;;;;3.20;2.10;;;;;;;;;;5053081;28;20248;-75
2023/09/29 02:59:10;;;;;;;2.78;1.45;;;;;;;;;;5052988;28;20229;-75
2023/09/29 03:01:37;;;;;;;3.50;2.13;;;;;;;;;;5052708;28;20215;-75
2023/09/29 03:04:07;;;;;;;3.72;2.25;;;;;;;;;;5053505;28;20195;-75
2023/09/29 03:06:34;;;;;;;3.10;1.80;;;;;;;;;;5053285;28;20499;-75
2023/09/29 03:09:03;;;;;;;4.50;2.50;;;;;;;;;;5052829;28;20210;-75
2023/09/29 03:11:30;;;;;;;5.95;2.58;;;;;;;;;;5052686;28;20672;-75
2023/09/29 03:13:58;;;;;;;9.98;3.58;;;;;;;;;;5053075;28;20263;-75
2023/09/29 03:16:25;;;;;;;6.43;3.95;;;;;;;;;;5053139;28;20245;-75
2023/09/29 03:18:55;;;;;;;5.47;3.97;;;;;;;;;;5052295;28;20692;-75
2023/09/29 03:21:22;;;;;;;7.00;5.15;;;;;;;;;;5052473;28;20202;-75
2023/09/29 03:23:51;;;;;;;5.22;2.85;;;;;;;;;;5052969;28;20198;-75
2023/09/29 03:26:22;;;;;;;4.88;3.38;;;;;;;;;;5052611;28;20201;-75
2023/09/29 03:28:49;;;;;;;4.50;3.40;;;;;;;;;;5052974;28;20190;-75
2023/09/29 03:31:18;;;;;;;5.30;3.53;;;;;;;;;;5052705;28;20559;-75
2023/09/29 03:33:45;;;;;;;5.60;3.92;;;;;;;;;;5052912;28;20210;-75
2023/09/29 03:36:12;;;;;;;6.82;3.83;;;;;;;;;;5052901;28;20190;-75
2023/09/29 03:38:41;;;;;;;5.05;3.40;;;;;;;;;;5053867;28;20259;-75
2023/09/29 03:41:10;;;;;;;4.28;2.85;;;;;;;;;;5056649;28;20195;-75
2023/09/29 03:43:39;;;;;;;3.95;2.70;;;;;;;;;;5056833;28;20612;-75
2023/09/29 03:46:08;;;;;;;6.88;2.45;;;;;;;;;;5056436;28;20277;-75
2023/09/29 03:48:36;;;;;;;8.65;2.75;;;;;;;;;;5057138;28;20194;-75
2023/09/29 03:51:06;;;;;;;4.18;2.33;;;;;;;;;;5076194;28;20254;-75
2023/09/29 03:53:33;;;;;;;4.00;2.40;;;;;;;;;;5076299;28;20209;-75
2023/09/29 03:56:00;;;;;;;5.47;3.15;;;;;;;;;;5076733;28;20196;-75
2023/09/29 03:58:28;;;;;;;5.88;3.28;;;;;;;;;;5076219;28;20220;-75
2023/09/29 04:00:57;;;;;;;5.75;3.35;;;;;;;;;;5075833;28;20182;-75
2023/09/29 04:03:25;;;;;;;4.25;3.05;;;;;;;;;;5076167;28;20194;-75
2023/09/29 04:05:52;;;;;;;6.78;3.65;;;;;;;;;;5076093;28;20189;-75
2023/09/29 04:08:20;;;;;;;5.22;3.50;;;;;;;;;;5076352;28;20240;-75
2023/09/29 04:10:47;;;;;;;5.65;3.40;;;;;;;;;;5075534;28;20705;-75
2023/09/29 04:13:15;;;;;;;6.18;3.20;;;;;;;;;;5075880;28;20684;-75
2023/09/29 04:15:42;;;;;;;5.32;2.95;;;;;;;;;;5076150;28;20190;-75
2023/09/29 04:18:11;;;;;;;5.43;2.83;;;;;;;;;;5075669;28;20335;-75
2023/09/29 04:20:38;;;;;;;4.28;2.53;;;;;;;;;;5073680;28;20186;-75
2023/09/29 04:23:07;;;;;;;5.05;3.20;;;;;;;;;;5035739;28;20191;-75
2023/09/29 04:25:35;;;;;;;4.40;2.30;;;;;;;;;;5036187;28;20649;-75
2023/09/29 04:28:02;;;;;;;4.30;2.70;;;;;;;;;;5035803;28;20642;-75
2023/09/29 04:30:29;;;;;;;4.57;3.08;;;;;;;;;;5036080;28;20196;-75
2023/09/29 04:32:56;;;;;;;3.92;2.72;;;;;;;;;;5054111;28;20233;-75
2023/09/29 04:35:25;;;;;;;5.25;3.17;;;;;;;;;;5055839;28;20598;-75
2023/09/29 04:37:53;;;;;;;4.43;3.20;;;;;;;;;;5056808;28;20198;-75
2023/09/29 04:40:20;;;;;;;4.55;3.30;;;;;;;;;;5055468;28;20187;-75
2023/09/29 04:42:49;;;;;;;4.72;3.65;;;;;;;;;;5055397;28;20191;-75
2023/09/29 04:45:17;;;;;;;5.10;2.85;;;;;;;;;;5055759;28;20198;-75
2023/09/29 04:47:44;;;;;;;6.07;4.13;;;;;;;;;;5055153;28;20642;-75
2023/09/29 04:50:14;;;;;;;9.73;3.90;;;;;;;;;;5055271;28;20226;-75
2023/09/29 04:52:42;;;;;;;6.72;3.85;;;;;;;;;;5055197;28;20219;-75
2023/09/29 04:55:10;;;;;;;5.57;3.45;;;;;;;;;;5055089;28;20278;-75
2023/09/29 04:57:38;;;;;;;5.65;3.45;;;;;;;;;;5042628;28;20248;-75
2023/09/29 05:00:07;;;;;;;4.22;3.05;;;;;;;;;;5059817;28;20424;-75
2023/09/29 05:02:35;;;;;;;4.57;2.92;;;;;;;;;;5052219;28;20218;-75
2023/09/29 05:05:03;;;;;;;4.57;3.08;;;;;;;;;;5054041;28;20213;-75
2023/09/29 05:07:30;;;;;;;6.32;2.53;;;;;;;;;;5058419;28;20190;-74
2023/09/29 05:10:00;;;;;;;4.78;3.00;;;;;;;;;;5055534;28;20198;-74
2023/09/29 05:12:28;;;;;;;5.32;3.28;;;;;;;;;;5055017;28;20590;-74
2023/09/29 05:14:55;;;;;;;6.55;3.30;;;;;;;;;;5057288;28;20235;-75
2023/09/29 05:17:23;;;;;;;4.53;3.42;;;;;;;;;;5053853;28;20267;-74
2023/09/29 05:19:50;;;;;;;6.65;3.35;;;;;;;;;;5073509;28;20233;-74
2023/09/29 05:22:18;;;;;;;7.20;3.45;;;;;;;;;;5073790;28;20600;-75
2023/09/29 05:24:45;;;;;;;5.75;3.05;;;;;;;;;;5073993;28;20186;-75
2023/09/29 05:27:14;;;;;;;4.53;2.90;;;;;;;;;;5072335;28;20201;-75
2023/09/29 05:29:42;;;;;;;5.60;2.88;;;;;;;;;;5071243;28;20186;-74
2023/09/29 05:32:09;;;;;;;4.75;3.22;;;;;;;;;;5074192;28;20347;-75
2023/09/29 05:34:37;;;;;;;4.15;2.90;;;;;;;;;;5074260;28;20574;-74
2023/09/29 05:37:05;;;;;;;5.43;3.88;;;;;;;;;;5073928;28;20519;-74
2023/09/29 05:39:33;;;;;;;4.95;3.60;;;;;;;;;;5074389;28;20190;-75
2023/09/29 05:42:00;;;;;;;6.78;3.42;;;;;;;;;;5056650;28;20733;-74
2023/09/29 05:44:29;;;;;;;4.85;3.17;;;;;;;;;;5054256;28;20280;-75
2023/09/29 05:46:56;;;;;;;4.35;3.03;;;;;;;;;;5054323;28;20187;-74
2023/09/29 05:49:23;;;;;;;7.68;4.30;;;;;;;;;;5053742;28;20719;-75
2023/09/29 05:51:51;;;;;;;6.45;3.50;;;;;;;;;;5054697;28;20198;-74
2023/09/29 05:54:19;;;;;;;6.57;4.32;;;;;;;;;;5073672;28;20621;-74
2023/09/29 05:56:47;;;;;;;6.05;3.85;;;;;;;;;;5073282;28;20644;-75
2023/09/29 05:59:15;;;;;;;6.80;4.80;;;;;;;;;;5072910;28;20236;-74
2023/09/29 06:01:47;;;;;;;6.70;3.95;;;;;;;;;;5066097;28;20186;-75
2023/09/29 06:04:14;;;;;;;5.53;3.40;;;;;;;;;;5073344;28;20193;-74
2023/09/29 06:06:42;;;;;;;5.00;2.80;;;;;;;;;;5072541;28;20190;-74
2023/09/29 06:09:09;;;;;;;8.52;3.60;;;;;;;;;;5067368;28;20229;-74
2023/09/29 06:11:36;;;;;;;6.00;3.20;;;;;;;;;;5073106;28;20683;-74
2023/09/29 06:14:04;;;;;;;6.43;3.80;;;;;;;;;;5070197;28;20847;-74
2023/09/29 06:16:32;;;;;;;5.80;4.30;;;;;;;;;;5053634;28;20197;-73
2023/09/29 06:19:01;;;;;;;7.55;3.85;;;;;;;;;;5059518;28;20624;-74
2023/09/29 06:21:28;;;;;;;10.25;5.80;;;;;;;;;;5052864;28;20249;-74
2023/09/29 06:23:55;;;;;;;11.77;5.05;;;;;;;;;;5053154;28;20234;-74
2023/09/29 06:26:23;;;;;;;7.60;5.10;;;;;;;;;;5053789;28;20245;-74
2023/09/29 06:28:54;;;;;;;7.13;4.87;;;;;;;;;;5058393;28;20190;-75
2023/09/29 06:31:22;;;;;;;7.57;5.00;;;;;;;;;;5053469;28;20437;-74
2023/09/29 06:33:50;;;;;;;7.50;5.47;;;;;;;;;;5057485;28;20505;-74
2023/09/29 06:36:19;;;;;;;6.00;4.73;;;;;;;;;;5072820;28;20424;-74
2023/09/29 06:38:46;;;;;;;7.50;4.40;;;;;;;;;;5072424;28;20771;-74
2023/09/29 06:41:13;;;;;;;6.60;4.13;;;;;;;;;;5066560;28;20438;-74
2023/09/29 06:43:43;;;;;;;9.47;4.77;;;;;;;;;;5065628;28;20449;-75
2023/09/29 06:46:10;;;;;;;8.60;4.80;;;;;;;;;;5069204;28;20526;-74
2023/09/29 06:48:37;;;;;;;7.10;4.30;;;;;;;;;;5072802;28;20447;-74
2023/09/29 06:51:05;;;;;;;7.03;4.30;;;;;;;;;;5070776;28;20440;-75
2023/09/29 06:53:33;;;;;;;12.63;4.73;;;;;;;;;;5058016;28;20760;-74
2023/09/29 06:56:00;;;;;;;8.90;3.83;;;;;;;;;;5056621;28;20928;-74
2023/09/29 06:58:28;;;;;;;7.83;3.60;;;;;;;;;;5053494;28;20446;-74
2023/09/29 07:00:56;;;;;;;8.00;3.80;;;;;;;;;;5057571;28;20441;-75
2023/09/29 07:03:26;;;;;;;5.40;3.60;;;;;;;;;;5073521;28;20455;-75
2023/09/29 07:05:53;;;;;;;6.53;3.63;;;;;;;;;;5073104;28;20472;-75
2023/09/29 07:08:24;;;;;;;4.70;3.13;;;;;;;;;;5073130;28;20446;-75
2023/09/29 07:10:52;;;;;;;4.17;2.70;;;;;;;;;;5073176;28;20433;-75
2023/09/29 07:13:20;;;;;;;6.00;2.97;;;;;;;;;;5073663;28;20840;-75
2023/09/29 07:15:47;;;;;;;5.20;3.27;;;;;;;;;;5077701;28;20818;-75
2023/09/29 07:18:16;;;;;;;5.43;3.00;;;;;;;;;;5077134;28;20820;-75
2023/09/29 07:20:43;;;;;;;4.43;2.73;;;;;;;;;;5077393;28;20527;-75
2023/09/29 07:23:10;;;;;;;4.77;2.57;;;;;;;;;;5077066;28;20436;-75
2023/09/29 07:25:39;;;;;;;6.47;3.30;;;;;;;;;;5076906;28;20431;-75
2023/09/29 07:28:09;;;;;;;3.93;2.90;;;;;;;;;;5077266;28;20441;-75
2023/09/29 07:30:36;;;;;;;3.57;2.67;;;;;;;;;;5077222;28;20422;-75
2023/09/29 07:33:10;;;;;;;4.80;3.00;;;;;;;;;;5077213;28;20550;-75
2023/09/29 07:35:37;;;;;;;5.97;3.10;;;;;;;;;;5076709;28;20456;-75
2023/09/29 07:38:07;;;;;;;7.63;3.40;;;;;;;;;;5076417;28;20494;-76
2023/09/29 07:40:34;;;;;;;4.70;3.40;;;;;;;;;;5076754;28;20505;-75
2023/09/29 07:43:02;;;;;;;4.50;3.10;;;;;;;;;;5076396;28;20447;-75
2023/09/29 07:45:30;;;;;;;4.73;3.10;;;;;;;;;;5076661;28;20463;-75
2023/09/29 07:47:58;;;;;;;5.83;3.40;;;;;;;;;;5076335;28;20984;-75
2023/09/29 07:50:25;;;;;;;4.50;3.20;;;;;;;;;;5076221;28;20432;-75
2023/09/29 07:52:52;;;;;;;6.40;3.40;;;;;;;;;;5076403;28;20490;-75
2023/09/29 07:55:25;;;;;;;5.50;3.20;;;;;;;;;;5076669;28;20493;-76
2023/09/29 07:57:53;;;;;;;4.20;3.10;;;;;;;;;;5076551;28;20445;-75
2023/09/29 08:00:20;;;;;;;5.50;3.33;;;;;;;;;;5076428;28;20440;-76
2023/09/29 08:02:49;;;;;;;4.70;2.73;;;;;;;;;;5076071;28;20436;-75
2023/09/29 08:05:19;;;;;;;6.50;3.13;;;;;;;;;;5076181;28;20476;-75
2023/09/29 08:07:47;;;;;;;4.63;2.67;;;;;;;;;;5075774;28;20925;-75
2023/09/29 08:10:14;;;;;;;4.00;3.17;;;;;;;;;;5076221;28;20432;-75
2023/09/29 08:12:41;;;;;;;4.50;3.47;;;;;;;;;;5075922;28;20589;-76
2023/09/29 08:15:11;;;;;;;4.43;2.93;;;;;;;;;;5076246;28;20428;-76
2023/09/29 08:17:38;;;;;;;5.33;2.87;;;;;;;;;;5076015;28;20432;-76
2023/09/29 08:20:14;;;;;;;10.33;3.40;;;;;;;;;;5075564;28;20459;-75
2023/09/29 08:22:43;;;;;;;4.90;3.10;;;;;;;;;;5076067;28;20503;-76
2023/09/29 08:25:11;;;;;;;3.63;2.30;;;;;;;;;;5075491;28;20563;-76
2023/09/29 08:27:38;;;;;;;5.47;2.90;;;;;;;;;;5076122;28;20458;-76
2023/09/29 08:30:07;;;;;;;5.27;2.50;;;;;;;;;;5075567;28;20482;-76
2023/09/29 08:32:34;;;;;;;6.00;3.10;;;;;;;;;;5076300;28;20441;-76
2023/09/29 08:35:01;;;;;;;4.53;2.87;;;;;;;;;;5075593;28;20972;-76
2023/09/29 08:37:30;;;;;;;5.00;2.70;;;;;;;;;;5075697;28;20494;-75
2023/09/29 08:39:57;;;;;;;5.10;2.80;;;;;;;;;;5075430;28;20983;-76
2023/09/29 08:42:31;;;;;;;4.83;3.20;;;;;;;;;;5075486;28;20432;-76
2023/09/29 08:44:59;;;;;;;6.07;3.30;;;;;;;;;;5075638;28;20507;-76
2023/09/29 08:47:30;;;;;;;4.43;3.13;;;;;;;;;;5075370;28;20468;-76
2023/09/29 08:49:58;;;;;;;3.83;3.20;;;;;;;;;;5075515;28;20512;-76
2023/09/29 08:52:27;;;;;;;3.90;3.10;;;;;;;;;;5075448;28;20472;-76
2023/09/29 08:54:56;;;;;;;4.27;3.10;;;;;;;;;;5075003;28;20437;-74
2023/09/29 08:57:24;;;;;;;4.30;3.37;;;;;;;;;;5075010;28;20464;-74
2023/09/29 08:59:53;;;;;;;4.83;3.30;;;;;;;;;;5053725;28;20448;-74
2023/09/29 09:02:21;;;;;;;4.80;2.90;;;;;;;;;;5055016;28;20437;-74
2023/09/29 09:04:48;;;;;;;3.50;2.60;;;;;;;;;;5054822;28;20465;-73
2023/09/29 09:07:16;;;;;;;4.40;2.60;;;;;;;;;;5054294;28;20461;-74
2023/09/29 09:09:50;;;;;;;3.60;2.90;;;;;;;;;;5054870;28;20433;-74
2023/09/29 09:12:19;;;;;;;6.20;3.40;;;;;;;;;;5054817;28;20534;-74
2023/09/29 09:14:47;;;;;;;6.23;3.40;;;;;;;;;;5054383;28;20551;-74
2023/09/29 09:17:19;;;;;;;4.57;3.00;;;;;;;;;;5054771;28;20434;-74
2023/09/29 09:19:51;;;;;;;4.23;2.57;;;;;;;;;;5054121;28;20528;-74
2023/09/29 09:22:18;;;;;;;4.07;3.07;;;;;;;;;;5054425;28;20487;-74
2023/09/29 09:24:46;;;;;;;4.70;3.00;;;;;;;;;;5054290;28;20433;-74
2023/09/29 09:27:13;;;;;;;4.83;3.13;;;;;;;;;;5053599;28;20442;-74
2023/09/29 09:29:44;;;;;;;3.67;2.87;;;;;;;;;;5054212;28;20981;-74
2023/09/29 09:32:11;;;;;;;3.90;2.23;;;;;;;;;;5054584;28;20895;-74
2023/09/29 09:34:39;;;;;;;4.83;3.27;;;;;;;;;;5054181;28;20444;-74
2023/09/29 09:37:11;;;;;;;3.50;2.67;;;;;;;;;;5053296;28;20520;-74
2023/09/29 09:39:39;;;;;;;4.10;3.27;;;;;;;;;;5054444;28;20887;-74
2023/09/29 09:42:10;;;;;;;3.53;2.73;;;;;;;;;;5054684;28;20529;-74
2023/09/29 09:44:38;;;;;;;3.90;2.90;;;;;;;;;;5054555;28;20487;-74
2023/09/29 09:47:10;;;;;;;3.93;2.90;;;;;;;;;;5054284;28;20429;-74
2023/09/29 09:49:41;;;;;;;3.70;2.73;;;;;;;;;;5054081;28;20421;-74
2023/09/29 09:52:12;;;;;;;4.67;3.30;;;;;;;;;;5054116;28;20927;-74
2023/09/29 09:54:41;;;;;;;4.70;2.73;;;;;;;;;;5054292;28;20424;-74
2023/09/29 09:57:10;;;;;;;5.43;3.33;;;;;;;;;;5054487;28;20468;-74
2023/09/29 09:59:39;;;;;;;3.23;2.27;;;;;;;;;;5053918;28;20498;-74
2023/09/29 10:02:09;;;;;;;4.83;3.23;;;;;;;;;;5054096;28;20871;-74
2023/09/29 10:04:38;;;;;;;4.20;3.17;;;;;;;;;;5054213;28;20429;-74
2023/09/29 10:07:10;;;;;;;5.33;2.83;;;;;;;;;;5053168;28;20949;-74
2023/09/29 10:09:43;;;;;;;4.70;3.13;;;;;;;;;;5049471;28;20431;-74
2023/09/29 10:12:12;;;;;;;3.00;2.00;;;;;;;;;;5034571;28;20442;-74
2023/09/29 10:14:43;;;;;;;2.70;2.20;;;;;;;;;;5053779;28;20447;-74
2023/09/29 10:17:13;;;;;;;4.33;2.57;;;;;;;;;;5053848;28;20440;-74
2023/09/29 10:19:41;;;;;;;5.53;3.00;;;;;;;;;;5053401;28;20465;-74
2023/09/29 10:22:09;;;;;;;4.80;2.70;;;;;;;;;;5053476;28;20483;-74
2023/09/29 10:24:36;;;;;;;2.80;2.23;;;;;;;;;;5053594;28;20926;-74
2023/09/29 10:27:11;;;;;;;3.80;3.23;;;;;;;;;;5053874;28;20851;-74
2023/09/29 10:29:39;;;;;;;3.40;2.20;;;;;;;;;;5053816;28;20771;-74
2023/09/29 10:32:13;;;;;;;3.30;2.50;;;;;;;;;;5053502;28;20518;-75
2023/09/29 10:34:42;;;;;;;3.07;2.37;;;;;;;;;;5053699;28;20459;-74
2023/09/29 10:37:14;;;;;;;4.10;3.07;;;;;;;;;;5052978;28;20557;-74
2023/09/29 10:39:44;;;;;;;3.20;2.33;;;;;;;;;;5053716;28;20421;-75
2023/09/29 10:42:14;;;;;;;4.13;2.70;;;;;;;;;;5053811;28;20726;-74
2023/09/29 10:44:45;;;;;;;2.97;2.10;;;;;;;;;;5053283;28;20846;-74
2023/09/29 10:47:14;;;;;;;3.90;2.27;;;;;;;;;;5053121;28;20923;-74
2023/09/29 10:49:46;;;;;;;3.70;2.57;;;;;;;;;;5053548;28;20893;-74
2023/09/29 10:52:19;;;;;;;3.47;2.47;;;;;;;;;;5051764;28;20444;-75
2023/09/29 10:54:48;;;;;;;4.30;2.40;;;;;;;;;;5053211;28;20448;-75
2023/09/29 10:57:22;;;;;;;3.85;2.22;;;;;;;;;;5053456;28;20562;-74
2023/09/29 10:59:52;;;;;;;2.70;1.83;;;;;;;;;;5053396;28;20787;-75
2023/09/29 11:02:19;;;;;;;2.83;1.80;;;;;;;;;;5052894;28;20441;-75
2023/09/29 11:04:51;;;;;;;4.57;2.27;;;;;;;;;;5045935;28;20247;-75
2023/09/29 11:07:20;;;;;;;2.92;1.90;;;;;;;;;;5052995;28;20425;-75
2023/09/29 11:09:48;;;;;;;2.90;2.28;;;;;;;;;;5053395;28;20433;-74
2023/09/29 11:12:18;;;;;;;3.15;2.03;;;;;;;;;;5053571;28;20182;-75
2023/09/29 11:14:45;;;;;;;3.17;2.10;;;;;;;;;;5052946;28;20178;-74
2023/09/29 11:17:13;;;;;;;2.60;1.98;;;;;;;;;;5053179;28;20265;-74
2023/09/29 11:19:55;;;;;;;3.13;1.83;;;;;;;;;;5052613;28;20217;-75
2023/09/29 11:22:25;;;;;;;2.57;1.70;;;;;;;;;;5053592;28;20447;-75
2023/09/29 11:24:54;;;;;;;3.63;1.80;;;;;;;;;;5058268;28;20434;-75
2023/09/29 11:27:21;;;;;;;2.80;1.60;;;;;;;;;;5072826;28;20522;-75
2023/09/29 11:29:48;;;;;;;2.33;1.17;;;;;;;;;;5072801;28;20436;-74
2023/09/29 11:32:18;;;;;;;2.47;1.30;;;;;;;;;;5065591;28;20486;-74
2023/09/29 11:34:46;;;;;;;3.67;1.43;;;;;;;;;;5072393;28;20946;-74
2023/09/29 11:37:13;;;;;;;4.47;1.60;;;;;;;;;;5072552;28;20920;-74
2023/09/29 11:39:42;;;;;;;5.47;1.43;;;;;;;;;;5069639;28;20829;-76
2023/09/29 11:42:09;;;;;;;2.40;1.10;;;;;;;;;;5052934;28;20841;-74
2023/09/29 11:44:37;;;;;;;2.20;1.00;;;;;;;;;;5052685;28;20437;-74
2023/09/29 11:47:04;;;;;;;2.40;1.30;;;;;;;;;;5052996;28;20444;-74
2023/09/29 11:49:32;;;;;;;3.33;1.83;;;;;;;;;;5052942;28;20524;-74
2023/09/29 11:51:59;;;;;;;2.90;1.73;;;;;;;;;;5053675;28;20442;-74
2023/09/29 11:54:26;;;;;;;4.70;1.50;;;;;;;;;;5073006;28;20928;-74
2023/09/29 11:56:55;;;;;;;3.20;1.30;;;;;;;;;;5072485;28;20953;-74
2023/09/29 11:59:22;;;;;;;2.50;1.20;;;;;;;;;;5053764;28;20928;-74
2023/09/29 12:01:50;;;;;;;2.57;1.10;;;;;;;;;;5056585;28;20433;-74
2023/09/29 12:04:17;;;;;;;2.40;1.33;;;;;;;;;;5056642;28;20428;-74
2023/09/29 12:06:44;;;;;;;3.87;1.60;;;;;;;;;;5056721;28;20587;-74
2023/09/29 12:09:11;;;;;;;5.73;1.60;;;;;;;;;;5056536;28;20503;-74
2023/09/29 12:11:40;;;;;;;6.03;1.17;;;;;;;;;;5056574;28;20433;-75
2023/09/29 12:14:09;;;;;;;2.43;1.43;;;;;;;;;;5056410;28;20491;-74
2023/09/29 12:16:36;;;;;;;2.33;1.30;;;;;;;;;;5055954;28;20487;-74
2023/09/29 12:19:04;;;;;;;2.83;1.73;;;;;;;;;;5055835;28;20465;-74
2023/09/29 12:21:33;;;;;;;2.83;1.70;;;;;;;;;;5056133;28;20822;-74
2023/09/29 12:24:00;;;;;;;2.60;1.40;;;;;;;;;;5055807;28;20492;-74
2023/09/29 12:26:27;;;;;;;3.40;1.63;;;;;;;;;;5056148;28;20850;-74
2023/09/29 12:28:55;;;;;;;2.40;1.43;;;;;;;;;;5056086;28;20441;-75
2023/09/29 12:31:23;;;;;;;2.77;1.63;;;;;;;;;;5056013;28;20429;-75
2023/09/29 12:33:53;;;;;;;3.20;2.20;;;;;;;;;;5056111;28;20436;-74
2023/09/29 12:36:20;;;;;;;3.40;2.00;;;;;;;;;;5055729;28;20549;-74
2023/09/29 12:38:47;;;;;;;2.80;1.77;;;;;;;;;;5055760;28;20479;-74
2023/09/29 12:41:15;;;;;;;3.33;1.60;;;;;;;;;;5055682;28;20441;-74
2023/09/29 12:43:43;;;;;;;4.00;2.00;;;;;;;;;;5056041;28;20479;-74
2023/09/29 12:46:10;;;;;;;3.10;1.80;;;;;;;;;;5055955;28;20437;-74
2023/09/29 12:48:38;;;;;;;2.73;1.53;;;;;;;;;;5055226;28;20433;-74
2023/09/29 12:51:06;;;;;;;4.33;1.40;;;;;;;;;;5055649;28;20437;-74
2023/09/29 12:53:38;;;;;;;2.70;1.50;;;;;;;;;;5053517;28;20437;-74
2023/09/29 12:56:05;;;;;;;5.80;5.23;;;;;;;;;;5055549;28;20461;-74
2023/09/29 12:58:32;;;;;;;8.07;4.80;;;;;;;;;;5054922;28;20429;-74
2023/09/29 13:01:00;;;;;;;3.90;3.17;;;;;;;;;;5054902;28;20434;-74
2023/09/29 13:03:27;;;;;;;2.90;2.00;;;;;;;;;;5055007;28;20437;-74
2023/09/29 13:06:00;;;;;;;4.37;1.87;;;;;;;;;;5054977;28;20915;-74
2023/09/29 13:08:27;;;;;;;4.90;2.20;;;;;;;;;;5055344;28;20512;-74
2023/09/29 13:10:55;;;;;;;6.40;1.90;;;;;;;;;;5054031;28;20437;-74
2023/09/29 13:13:23;;;;;;;5.63;1.60;;;;;;;;;;5054742;28;20516;-74
2023/09/29 13:15:50;;;;;;;3.83;2.20;;;;;;;;;;5055134;28;20442;-74
2023/09/29 13:18:18;;;;;;;3.03;1.93;;;;;;;;;;5054949;28;20461;-74
2023/09/29 13:20:46;;;;;;;4.93;3.90;;;;;;;;;;5055274;28;20475;-74
2023/09/29 13:23:15;;;;;;;3.70;2.00;;;;;;;;;;5054921;28;20479;-74
2023/09/29 13:25:42;;;;;;;4.30;2.30;;;;;;;;;;5054493;28;20487;-74
2023/09/29 13:28:10;;;;;;;2.90;1.53;;;;;;;;;;5054662;28;20437;-74
2023/09/29 13:30:37;;;;;;;3.57;1.70;;;;;;;;;;5054978;28;20437;-74
2023/09/29 13:33:05;;;;;;;3.83;1.97;;;;;;;;;;5054933;28;20440;-74
2023/09/29 13:35:32;;;;;;;2.90;1.50;;;;;;;;;;5054534;28;20491;-75
2023/09/29 13:37:59;;;;;;;7.27;2.07;;;;;;;;;;5054576;28;20876;-74
2023/09/29 13:40:27;;;;;;;13.80;2.47;;;28.80;29.00;;;;;;5054310;28;20487;-69
2023/09/29 13:42:54;;;;;;;3.30;1.77;;;36.30;19.10;;;;;;5054369;28;20501;-74
2023/09/29 13:45:22;;;;;;;5.27;1.77;;;35.50;18.10;;;;;;5054526;28;20434;-74
2023/09/29 13:47:49;;;;;;;4.00;2.00;;;35.00;18.30;;;;;;5054251;28;20439;-76
2023/09/29 13:50:16;;;;;;;2.60;1.40;;;34.60;17.90;;;;;;5054242;28;20446;-76
2023/09/29 13:52:44;;;;;;;3.10;1.77;;;34.30;18.10;;;;;;5054036;28;20433;-76
2023/09/29 13:55:12;;;;;;;9.10;1.93;;;34.00;18.50;;;;;;5054520;28;20754;-76
2023/09/29 13:57:40;;;;;;;2.77;1.53;;;33.70;20.00;;;;;;5054188;28;20465;-76
2023/09/29 14:00:08;;;;;;;3.13;1.87;;;33.40;19.60;;;;;;5054070;28;20430;-76
2023/09/29 14:02:35;;;;;;;3.60;1.60;;;33.20;19.70;;;;;;5054247;28;20528;-76
2023/09/29 14:05:05;;;;;;;3.00;1.80;;;32.90;20.10;;;;;;5054343;28;20437;-76
2023/09/29 14:07:32;;;;;;;3.40;1.90;;;32.60;20.50;;;;;;5053786;28;20437;-76
2023/09/29 14:09:59;;;;;;;12.23;2.70;;;32.30;21.00;;;;;;5053701;28;20438;-76
2023/09/29 14:12:26;;;;;;;7.53;1.90;;;31.90;21.60;;;;;;5053860;28;20452;-76
2023/09/29 14:14:54;;;;;;;6.10;3.47;;;31.50;22.10;;;;;;5053471;28;20438;-75
2023/09/29 14:17:21;;;;;;;5.33;2.30;;;31.30;22.70;;;;;;5053335;28;20878;-75
2023/09/29 14:19:50;;;;;;;5.07;2.40;;;31.00;23.20;;;;;;5053407;28;20457;-75
2023/09/29 14:22:17;;;;;;;3.87;1.77;;;30.80;23.70;;;;;;5052923;28;20430;-76
2023/09/29 14:24:44;;;;;;;3.10;1.73;;;30.70;23.50;;;;;;5053225;28;20483;-75
2023/09/29 14:27:11;;;;;;;4.20;1.90;;;30.60;23.50;;;;;;5053230;28;20916;-76
2023/09/29 14:29:38;;;;;;;4.27;2.13;;;30.60;23.50;;;;;;5053177;28;20438;-76
2023/09/29 14:32:07;;;;;;;3.27;1.70;;;30.50;24.30;;;;;;5053334;28;20508;-76
2023/09/29 14:34:34;;;;;;;5.50;1.70;;;30.40;24.70;;;;;;5059903;28;20777;-76
2023/09/29 14:37:01;;;;;;;3.90;1.60;;;30.30;24.70;;;;;;5072822;28;20561;-76
2023/09/29 14:39:36;;;;;;;8.70;4.60;;;30.20;25.10;;;;;;5054831;28;20473;-76